createdAt,value
2023-05-16T00:02:04.698Z,101511.91
2023-05-16T00:04:34.052Z,101511.91
2023-05-16T00:07:02.518Z,101506.16
2023-05-16T00:09:30.702Z,101499.91
2023-05-16T00:11:59.739Z,101504.03
2023-05-16T00:14:28.196Z,101503.91
2023-05-16T00:16:58.615Z,101498.78
2023-05-16T00:19:27.662Z,101502.69
2023-05-16T00:21:55.910Z,101499.44
2023-05-16T00:24:24.078Z,101498.56
2023-05-16T00:26:52.281Z,101501.28
2023-05-16T00:29:20.518Z,101498.81
2023-05-16T00:31:48.898Z,101497.28
2023-05-16T00:34:17.394Z,101496.06
2023-05-16T00:36:45.637Z,101485.78
2023-05-16T00:39:14.013Z,101488.22
2023-05-16T00:41:42.318Z,101490.72
2023-05-16T00:44:10.519Z,101489.97
2023-05-16T00:46:38.940Z,101486.59
2023-05-16T00:49:07.916Z,101492.88
2023-05-16T00:51:36.548Z,101492.88
2023-05-16T00:54:05.060Z,101493.16
2023-05-16T00:56:33.761Z,101496.97
2023-05-16T00:59:02.268Z,101490.25
2023-05-16T01:01:31.351Z,101493.75
2023-05-16T01:04:01.658Z,101501.50
2023-05-16T01:06:30.130Z,101491.50
2023-05-16T01:08:58.320Z,101502.78
2023-05-16T01:11:32.437Z,101498.63
2023-05-16T01:14:18.696Z,101500.47
2023-05-16T01:17:09.958Z,101499.41
2023-05-16T01:19:41.196Z,101502.09
2023-05-16T01:22:38.535Z,101500.72
2023-05-16T01:25:33.913Z,101497.69
2023-05-16T01:28:04.220Z,101502.84
2023-05-16T01:30:37.419Z,101491.31
2023-05-16T01:33:05.939Z,101497.28
2023-05-16T01:35:35.168Z,101497.97
2023-05-16T01:38:22.465Z,101500.34
2023-05-16T01:40:57.033Z,101500.81
2023-05-16T01:43:53.620Z,101500.31
2023-05-16T01:46:30.775Z,101495.22
2023-05-16T01:49:18.664Z,101494.53
2023-05-16T01:51:57.046Z,101499.56
2023-05-16T01:54:28.900Z,101490.91
2023-05-16T01:56:58.185Z,101496.72
2023-05-16T01:59:27.195Z,101503.25
2023-05-16T02:01:58.358Z,101507.94
2023-05-16T02:04:27.080Z,101507.66
2023-05-16T02:06:55.647Z,101501.53
2023-05-16T02:09:24.011Z,101501.69
2023-05-16T02:11:52.236Z,101503.97
2023-05-16T02:14:20.416Z,101507.53
2023-05-16T02:16:50.228Z,101510.97
2023-05-16T02:19:18.701Z,101508.19
2023-05-16T02:21:47.029Z,101511.72
2023-05-16T02:24:15.403Z,101511.00
2023-05-16T02:26:43.775Z,101512.38
2023-05-16T02:29:12.072Z,101506.28
2023-05-16T02:31:40.416Z,101508.06
2023-05-16T02:34:08.727Z,101518.16
2023-05-16T02:36:37.125Z,101528.16
2023-05-16T02:39:05.466Z,101527.28
2023-05-16T02:41:34.064Z,101527.00
2023-05-16T02:44:02.272Z,101526.63
2023-05-16T02:46:35.108Z,101528.88
2023-05-16T02:49:04.474Z,101539.06
2023-05-16T02:51:32.719Z,101537.91
2023-05-16T02:54:01.975Z,101535.44
2023-05-16T02:56:30.202Z,101544.38
2023-05-16T02:58:58.380Z,101541.59
2023-05-16T03:01:26.815Z,101545.56
2023-05-16T03:03:55.217Z,101542.38
2023-05-16T03:06:23.691Z,101548.53
2023-05-16T03:08:51.978Z,101557.84
2023-05-16T03:11:24.946Z,101549.97
2023-05-16T03:13:53.211Z,101562.88
2023-05-16T03:16:22.518Z,101566.09
2023-05-16T03:18:51.179Z,101574.53
2023-05-16T03:21:19.441Z,101571.28
2023-05-16T03:23:47.925Z,101569.59
2023-05-16T03:26:16.252Z,101576.91
2023-05-16T03:28:44.445Z,101585.38
2023-05-16T03:31:12.671Z,101579.25
2023-05-16T03:33:40.983Z,101582.16
2023-05-16T03:36:09.509Z,101593.47
2023-05-16T03:38:38.428Z,101583.94
2023-05-16T03:41:06.738Z,101598.44
2023-05-16T03:43:34.978Z,101595.00
2023-05-16T03:46:03.454Z,101600.34
2023-05-16T03:48:31.825Z,101600.25
2023-05-16T03:51:00.059Z,101601.41
2023-05-16T03:53:28.456Z,101596.38
2023-05-16T03:55:56.618Z,101600.16
2023-05-16T03:58:24.888Z,101596.03
2023-05-16T04:00:53.073Z,101604.38
2023-05-16T04:03:21.772Z,101611.94
2023-05-16T04:05:50.325Z,101602.47
2023-05-16T04:08:18.512Z,101608.72
2023-05-16T04:10:46.711Z,101610.56
2023-05-16T04:13:16.391Z,101624.25
2023-05-16T04:15:45.043Z,101628.94
2023-05-16T04:18:14.343Z,101620.81
2023-05-16T04:20:45.496Z,101622.91
2023-05-16T04:23:13.845Z,101629.31
2023-05-16T04:25:43.249Z,101629.56
2023-05-16T04:28:11.548Z,101628.06
2023-05-16T04:30:39.760Z,101636.09
2023-05-16T04:33:08.067Z,101638.72
2023-05-16T04:35:36.354Z,101641.63
2023-05-16T04:38:05.539Z,101644.66
2023-05-16T04:40:34.175Z,101640.63
2023-05-16T04:43:02.510Z,101652.31
2023-05-16T04:45:30.758Z,101649.75
2023-05-16T04:47:59.379Z,101642.66
2023-05-16T04:50:27.724Z,101652.75
2023-05-16T04:52:56.571Z,101655.72
2023-05-16T04:55:25.173Z,101652.44
2023-05-16T04:57:53.504Z,101646.66
2023-05-16T05:00:21.988Z,101651.34
2023-05-16T05:02:50.470Z,101655.94
2023-05-16T05:05:18.828Z,101651.72
2023-05-16T05:07:47.660Z,101658.28
2023-05-16T05:10:15.969Z,101653.19
2023-05-16T05:12:44.205Z,101657.81
2023-05-16T05:15:12.431Z,101652.56
2023-05-16T05:17:40.769Z,101650.75
2023-05-16T05:20:09.506Z,101654.31
2023-05-16T05:22:37.673Z,101655.06
2023-05-16T05:25:07.353Z,101661.19
2023-05-16T05:27:35.585Z,101655.78
2023-05-16T05:30:04.833Z,101650.44
2023-05-16T05:32:33.063Z,101646.13
2023-05-16T05:35:01.443Z,101642.69
2023-05-16T05:37:29.953Z,101639.31
2023-05-16T05:39:58.398Z,101644.84
2023-05-16T05:42:26.590Z,101642.03
2023-05-16T05:44:54.839Z,101644.78
2023-05-16T05:47:23.176Z,101646.50
2023-05-16T05:49:52.045Z,101647.28
2023-05-16T05:52:20.272Z,101641.88
2023-05-16T05:54:49.906Z,101644.66
2023-05-16T05:57:18.161Z,101638.72
2023-05-16T05:59:46.339Z,101642.44
2023-05-16T06:02:15.171Z,101641.66
2023-05-16T06:04:43.663Z,101644.25
2023-05-16T06:07:11.868Z,101641.50
2023-05-16T06:09:40.160Z,101643.63
2023-05-16T06:12:08.646Z,101639.59
2023-05-16T06:14:36.888Z,101638.19
2023-05-16T06:17:05.154Z,101640.06
2023-05-16T06:19:33.413Z,101636.69
2023-05-16T06:22:01.658Z,101639.38
2023-05-16T06:24:30.767Z,101634.63
2023-05-16T06:26:58.980Z,101641.47
2023-05-16T06:29:27.483Z,101644.06
2023-05-16T06:31:55.823Z,101642.19
2023-05-16T06:34:28.890Z,101636.84
2023-05-16T06:36:57.109Z,101646.72
2023-05-16T06:39:25.290Z,101645.78
2023-05-16T06:41:56.325Z,101636.38
2023-05-16T06:44:25.408Z,101640.78
2023-05-16T06:46:53.847Z,101639.28
2023-05-16T06:49:22.184Z,101637.72
2023-05-16T06:51:50.694Z,101637.31
2023-05-16T06:54:18.915Z,101636.53
2023-05-16T06:56:47.243Z,101638.19
2023-05-16T06:59:15.461Z,101636.38
2023-05-16T07:01:43.806Z,101644.50
2023-05-16T07:04:12.158Z,101639.28
2023-05-16T07:06:40.776Z,101640.94
2023-05-16T07:09:09.282Z,101635.69
2023-05-16T07:11:37.522Z,101638.50
2023-05-16T07:14:05.777Z,101640.34
2023-05-16T07:16:34.084Z,101631.53
2023-05-16T07:19:02.490Z,101637.56
2023-05-16T07:21:30.949Z,101638.53
2023-05-16T07:23:59.213Z,101635.84
2023-05-16T07:26:27.518Z,101633.16
2023-05-16T07:28:56.168Z,101631.53
2023-05-16T07:31:25.067Z,101632.31
2023-05-16T07:33:53.300Z,101624.22
2023-05-16T07:36:22.119Z,101619.69
2023-05-16T07:38:50.714Z,101619.66
2023-05-16T07:41:18.931Z,101624.13
2023-05-16T07:43:47.177Z,101626.66
2023-05-16T07:46:15.447Z,101621.34
2023-05-16T07:48:43.745Z,101624.88
2023-05-16T07:51:11.981Z,101630.19
2023-05-16T07:53:40.261Z,101626.56
2023-05-16T07:56:09.043Z,101622.97
2023-05-16T07:58:37.380Z,101623.91
2023-05-16T08:01:05.748Z,101616.69
2023-05-16T08:03:34.198Z,101617.38
2023-05-16T08:06:02.727Z,101609.22
2023-05-16T08:08:31.485Z,101611.78
2023-05-16T08:10:59.699Z,101608.91
2023-05-16T08:13:27.960Z,101615.00
2023-05-16T08:15:56.404Z,101618.38
2023-05-16T08:18:25.075Z,101614.84
2023-05-16T08:20:53.302Z,101613.97
2023-05-16T08:23:22.026Z,101612.16
2023-05-16T08:25:51.023Z,101620.19
2023-05-16T08:28:19.258Z,101615.84
2023-05-16T08:30:48.120Z,101609.81
2023-05-16T08:33:16.911Z,101607.09
2023-05-16T08:35:45.953Z,101600.72
2023-05-16T08:38:14.227Z,101609.50
2023-05-16T08:40:43.967Z,101608.53
2023-05-16T08:43:12.859Z,101603.91
2023-05-16T08:45:43.500Z,101597.59
2023-05-16T08:48:12.825Z,101601.22
2023-05-16T08:50:41.149Z,101593.41
2023-05-16T08:53:10.713Z,101590.72
2023-05-16T08:55:41.967Z,101592.59
2023-05-16T08:58:10.469Z,101594.34
2023-05-16T09:00:39.253Z,101589.06
2023-05-16T09:03:07.799Z,101599.69
2023-05-16T09:05:36.446Z,101599.81
2023-05-16T09:08:04.766Z,101599.06
2023-05-16T09:10:33.008Z,101594.75
2023-05-16T09:13:01.260Z,101598.38
2023-05-16T09:15:33.826Z,101605.50
2023-05-16T09:18:03.928Z,101599.22
2023-05-16T09:20:32.516Z,101603.53
2023-05-16T09:23:01.718Z,101604.22
2023-05-16T09:25:32.718Z,101605.84
2023-05-16T09:28:03.526Z,101604.91
2023-05-16T09:30:37.933Z,101603.91
2023-05-16T09:33:08.889Z,101597.59
2023-05-16T09:35:44.215Z,101591.31
2023-05-16T09:38:18.550Z,101590.56
2023-05-16T09:40:47.519Z,101597.69
2023-05-16T09:43:19.265Z,101595.97
2023-05-16T09:45:49.374Z,101595.88
2023-05-16T09:48:18.807Z,101594.94
2023-05-16T09:50:55.846Z,101594.09
2023-05-16T09:53:33.300Z,101585.19
2023-05-16T09:56:06.095Z,101595.72
2023-05-16T09:58:35.978Z,101586.75
2023-05-16T10:01:05.294Z,101591.22
2023-05-16T10:03:36.541Z,101599.34
2023-05-16T10:06:07.536Z,101590.44
2023-05-16T10:08:37.747Z,101588.75
2023-05-16T10:11:07.542Z,101588.41
2023-05-16T10:13:37.506Z,101584.13
2023-05-16T10:16:12.959Z,101588.47
2023-05-16T10:18:42.357Z,101590.16
2023-05-16T10:21:15.629Z,101584.81
2023-05-16T10:23:45.148Z,101584.69
2023-05-16T10:26:15.504Z,101580.22
2023-05-16T10:28:44.259Z,101583.78
2023-05-16T10:31:12.848Z,101584.69
2023-05-16T10:33:42.018Z,101590.09
2023-05-16T10:36:11.896Z,101592.75
2023-05-16T10:38:41.479Z,101591.97
2023-05-16T10:41:10.676Z,101588.47
2023-05-16T10:43:39.012Z,101588.41
2023-05-16T10:46:13.303Z,101589.22
2023-05-16T10:48:43.268Z,101586.81
2023-05-16T10:51:36.181Z,101584.28
2023-05-16T10:54:10.998Z,101582.47
2023-05-16T10:56:39.979Z,101593.03
2023-05-16T10:59:29.364Z,101582.34
2023-05-16T11:01:58.005Z,101581.38
2023-05-16T11:04:53.540Z,101576.84
2023-05-16T11:07:24.044Z,101576.09
2023-05-16T11:10:07.744Z,101581.44
2023-05-16T11:12:52.723Z,101573.38
2023-05-16T11:15:30.867Z,101577.00
2023-05-16T11:18:11.902Z,101575.59
2023-05-16T11:20:41.281Z,101575.84
2023-05-16T11:23:18.463Z,101574.13
2023-05-16T11:25:48.799Z,101570.50
2023-05-16T11:28:17.523Z,101572.13
2023-05-16T11:30:50.760Z,101567.56
2023-05-16T11:33:19.910Z,101565.84
2023-05-16T11:38:44.384Z,101563.09
2023-05-16T11:41:13.181Z,101569.31
2023-05-16T11:43:46.953Z,101560.34
2023-05-16T11:46:17.152Z,101559.72
2023-05-16T11:48:47.418Z,101563.41
2023-05-16T11:51:19.717Z,101555.50
2023-05-16T11:53:51.333Z,101559.19
2023-05-16T11:56:19.718Z,101561.78
2023-05-16T11:58:48.788Z,101559.81
2023-05-16T12:01:17.070Z,101559.75
2023-05-16T12:03:45.481Z,101552.56
2023-05-16T12:06:13.797Z,101555.25
2023-05-16T12:08:52.323Z,101547.28
2023-05-16T12:11:22.587Z,101549.03
2023-05-16T12:13:51.393Z,101544.56
2023-05-16T12:16:19.990Z,101552.56
2023-05-16T12:18:48.885Z,101556.13
2023-05-16T12:21:17.339Z,101552.59
2023-05-16T12:23:45.683Z,101557.16
2023-05-16T12:26:13.920Z,101561.56
2023-05-16T12:28:42.514Z,101561.56
2023-05-16T12:31:31.216Z,101566.91
2023-05-16T12:34:01.123Z,101563.28
2023-05-16T12:36:34.168Z,101563.19
2023-05-16T12:39:04.573Z,101562.38
2023-05-16T12:41:33.096Z,101562.41
2023-05-16T12:44:18.538Z,101568.75
2023-05-16T12:46:53.497Z,101565.16
2023-05-16T12:49:25.236Z,101570.50
2023-05-16T12:51:55.908Z,101569.56
2023-05-16T12:54:24.806Z,101566.91
2023-05-16T12:56:53.068Z,101565.97
2023-05-16T12:59:21.529Z,101565.94
2023-05-16T13:01:50.284Z,101576.59
2023-05-16T13:04:20.667Z,101568.53
2023-05-16T13:09:20.459Z,101572.00
2023-05-16T13:11:49.484Z,101574.63
2023-05-16T13:14:20.942Z,101576.31
2023-05-16T13:16:49.553Z,101578.13
2023-05-16T13:19:18.119Z,101578.97
2023-05-16T13:21:46.391Z,101577.25
2023-05-16T13:24:14.606Z,101584.38
2023-05-16T13:26:42.814Z,101581.78
2023-05-16T13:29:12.599Z,101577.31
2023-05-16T13:31:40.890Z,101577.34
2023-05-16T13:34:09.207Z,101572.94
2023-05-16T13:36:52.184Z,101581.78
2023-05-16T13:39:22.960Z,101572.84
2023-05-16T13:41:51.854Z,101576.38
2023-05-16T13:44:20.521Z,101578.25
2023-05-16T13:46:49.645Z,101576.63
2023-05-16T13:49:17.921Z,101584.56
2023-05-16T13:51:46.331Z,101579.13
2023-05-16T13:54:14.681Z,101574.56
2023-05-16T13:56:42.995Z,101580.75
2023-05-16T13:59:14.262Z,101577.06
2023-05-16T14:01:46.852Z,101584.13
2023-05-16T14:04:15.341Z,101583.06
2023-05-16T14:06:43.696Z,101583.81
2023-05-16T14:09:13.799Z,101583.78
2023-05-16T14:11:42.148Z,101583.72
2023-05-16T14:14:10.349Z,101585.38
2023-05-16T14:16:38.720Z,101587.09
2023-05-16T14:19:07.320Z,101588.66
2023-05-16T14:21:35.616Z,101587.69
2023-05-16T14:24:03.874Z,101585.75
2023-05-16T14:26:33.173Z,101596.44
2023-05-16T14:29:01.576Z,101592.94
2023-05-16T14:31:31.065Z,101589.31
2023-05-16T14:33:59.910Z,101597.25
2023-05-16T14:36:28.156Z,101596.25
2023-05-16T14:38:57.255Z,101606.06
2023-05-16T14:41:25.592Z,101606.78
2023-05-16T14:43:53.793Z,101603.03
2023-05-16T14:46:22.098Z,101597.47
2023-05-16T14:48:50.645Z,101603.53
2023-05-16T14:51:18.875Z,101597.19
2023-05-16T14:53:48.156Z,101600.78
2023-05-16T14:56:17.228Z,101597.97
2023-05-16T14:58:45.783Z,101588.75
2023-05-16T15:01:14.172Z,101594.75
2023-05-16T15:06:13.587Z,101593.28
2023-05-16T15:08:42.414Z,101598.38
2023-05-16T15:11:10.670Z,101595.63
2023-05-16T15:13:39.062Z,101590.28
2023-05-16T15:16:08.595Z,101589.28
2023-05-16T15:18:37.154Z,101588.59
2023-05-16T15:21:05.501Z,101588.59
2023-05-16T15:23:34.026Z,101591.16
2023-05-16T15:26:02.333Z,101589.91
2023-05-16T15:28:30.610Z,101579.94
2023-05-16T15:30:58.900Z,101587.84
2023-05-16T15:33:27.251Z,101583.94
2023-05-16T15:35:55.542Z,101576.19
2023-05-16T15:38:23.847Z,101578.00
2023-05-16T15:41:12.230Z,101579.72
2023-05-16T15:43:41.369Z,101576.28
2023-05-16T15:46:12.615Z,101579.38
2023-05-16T15:48:45.598Z,101591.53
2023-05-16T15:51:14.271Z,101584.06
2023-05-16T15:53:42.613Z,101582.84
2023-05-16T15:56:10.858Z,101585.63
2023-05-16T15:58:39.165Z,101585.75
2023-05-16T16:01:07.516Z,101580.03
2023-05-16T16:03:35.983Z,101579.19
2023-05-16T16:06:04.536Z,101584.56
2023-05-16T16:08:32.799Z,101573.72
2023-05-16T16:11:01.200Z,101582.13
2023-05-16T16:13:29.541Z,101576.75
2023-05-16T16:15:57.973Z,101582.31
2023-05-16T16:18:26.251Z,101576.25
2023-05-16T16:20:54.907Z,101572.69
2023-05-16T16:23:23.219Z,101572.63
2023-05-16T16:25:51.522Z,101578.56
2023-05-16T16:28:21.177Z,101579.97
2023-05-16T16:30:51.349Z,101577.94
2023-05-16T16:33:19.708Z,101580.06
2023-05-16T16:35:48.194Z,101571.53
2023-05-16T16:38:17.226Z,101574.63
2023-05-16T16:40:45.596Z,101567.88
2023-05-16T16:43:14.016Z,101564.19
2023-05-16T16:45:42.455Z,101570.47
2023-05-16T16:48:11.595Z,101567.00
2023-05-16T16:50:41.660Z,101564.19
2023-05-16T16:53:10.725Z,101567.28
2023-05-16T16:55:40.877Z,101563.44
2023-05-16T16:58:09.397Z,101571.38
2023-05-16T17:00:37.764Z,101557.88
2023-05-16T17:03:06.173Z,101560.34
2023-05-16T17:05:34.618Z,101563.28
2023-05-16T17:08:03.001Z,101562.59
2023-05-16T17:10:31.604Z,101564.66
2023-05-16T17:13:06.780Z,101557.38
2023-05-16T17:15:35.215Z,101550.78
2023-05-16T17:18:03.547Z,101551.34
2023-05-16T17:20:32.083Z,101556.38
2023-05-16T17:23:00.320Z,101552.81
2023-05-16T17:25:29.992Z,101551.38
2023-05-16T17:27:58.551Z,101551.50
2023-05-16T17:30:27.087Z,101554.41
2023-05-16T17:32:55.429Z,101546.72
2023-05-16T17:35:23.833Z,101547.19
2023-05-16T17:37:52.343Z,101549.25
2023-05-16T17:40:20.779Z,101553.31
2023-05-16T17:42:49.318Z,101549.16
2023-05-16T17:45:18.970Z,101544.63
2023-05-16T17:47:47.321Z,101546.19
2023-05-16T17:50:15.942Z,101542.28
2023-05-16T17:52:44.992Z,101539.94
2023-05-16T17:55:13.280Z,101528.22
2023-05-16T17:57:42.184Z,101534.19
2023-05-16T18:00:10.936Z,101529.72
2023-05-16T18:02:40.301Z,101523.56
2023-05-16T18:05:09.201Z,101525.31
2023-05-16T18:07:37.486Z,101523.81
2023-05-16T18:10:05.928Z,101523.25
2023-05-16T18:12:34.186Z,101517.00
2023-05-16T18:15:02.708Z,101518.44
2023-05-16T18:17:30.950Z,101521.03
2023-05-16T18:19:59.517Z,101524.81
2023-05-16T18:22:28.703Z,101520.97
2023-05-16T18:24:56.940Z,101517.81
2023-05-16T18:27:25.183Z,101521.97
2023-05-16T18:29:53.437Z,101516.00
2023-05-16T18:32:22.475Z,101514.75
2023-05-16T18:34:51.270Z,101515.75
2023-05-16T18:37:19.526Z,101521.72
2023-05-16T18:39:50.082Z,101519.81
2023-05-16T18:42:18.569Z,101515.75
2023-05-16T18:44:47.127Z,101510.16
2023-05-16T18:47:16.660Z,101518.03
2023-05-16T18:49:44.985Z,101521.00
2023-05-16T18:52:13.339Z,101506.22
2023-05-16T18:54:41.741Z,101509.44
2023-05-16T18:57:10.024Z,101506.72
2023-05-16T18:59:38.453Z,101503.94
2023-05-16T19:02:06.801Z,101504.16
2023-05-16T19:04:35.280Z,101506.97
2023-05-16T19:07:05.161Z,101499.63
2023-05-16T19:09:34.449Z,101499.22
2023-05-16T19:12:02.747Z,101495.91
2023-05-16T19:14:31.109Z,101491.19
2023-05-16T19:16:59.430Z,101495.47
2023-05-16T19:19:27.917Z,101481.44
2023-05-16T19:21:56.404Z,101477.53
2023-05-16T19:24:24.703Z,101475.13
2023-05-16T19:26:52.945Z,101476.31
2023-05-16T19:29:23.056Z,101478.53
2023-05-16T19:31:51.361Z,101483.09
2023-05-16T19:34:22.005Z,101478.25
2023-05-16T19:36:50.888Z,101474.00
2023-05-16T19:39:19.308Z,101482.53
2023-05-16T19:41:51.655Z,101474.56
2023-05-16T19:44:20.607Z,101470.88
2023-05-16T19:46:49.058Z,101459.38
2023-05-16T19:49:19.623Z,101462.88
2023-05-16T19:51:49.076Z,101455.75
2023-05-16T19:54:17.364Z,101452.06
2023-05-16T19:56:45.614Z,101449.88
2023-05-16T19:59:13.875Z,101459.53
2023-05-16T20:01:42.302Z,101452.50
2023-05-16T20:04:10.824Z,101449.78
2023-05-16T20:06:39.235Z,101455.63
2023-05-16T20:09:08.114Z,101437.00
2023-05-16T20:11:36.452Z,101436.94
2023-05-16T20:14:04.740Z,101432.38
2023-05-16T20:16:33.057Z,101426.34
2023-05-16T20:19:01.984Z,101431.75
2023-05-16T20:21:30.251Z,101425.53
2023-05-16T20:23:58.494Z,101419.63
2023-05-16T20:26:26.737Z,101418.75
2023-05-16T20:28:54.979Z,101403.31
2023-05-16T20:31:23.222Z,101407.25
2023-05-16T20:33:51.559Z,101393.78
2023-05-16T20:36:19.950Z,101397.25
2023-05-16T20:38:48.513Z,101403.19
2023-05-16T20:41:16.893Z,101392.78
2023-05-16T20:43:45.262Z,101391.13
2023-05-16T20:46:13.550Z,101382.03
2023-05-16T20:48:41.875Z,101388.75
2023-05-16T20:51:10.228Z,101376.75
2023-05-16T20:53:38.520Z,101381.63
2023-05-16T20:56:07.118Z,101377.38
2023-05-16T20:58:35.399Z,101374.94
2023-05-16T21:01:03.600Z,101367.63
2023-05-16T21:03:31.976Z,101372.84
2023-05-16T21:06:00.289Z,101366.81
2023-05-16T21:08:28.594Z,101358.38
2023-05-16T21:10:56.906Z,101354.50
2023-05-16T21:13:25.296Z,101358.78
2023-05-16T21:15:53.636Z,101346.56
2023-05-16T21:18:22.136Z,101344.84
2023-05-16T21:20:50.778Z,101349.81
2023-05-16T21:23:19.046Z,101337.03
2023-05-16T21:25:47.304Z,101339.72
2023-05-16T21:28:15.601Z,101338.41
2023-05-16T21:30:43.806Z,101327.66
2023-05-16T21:33:12.432Z,101331.38
2023-05-16T21:35:40.726Z,101324.69
2023-05-16T21:38:08.976Z,101317.75
2023-05-16T21:40:37.205Z,101315.25
2023-05-16T21:43:05.412Z,101306.63
2023-05-16T21:45:33.706Z,101310.25
2023-05-16T21:48:02.069Z,101299.13
2023-05-16T21:50:30.432Z,101300.41
2023-05-16T21:52:58.656Z,101302.59
2023-05-16T21:55:27.331Z,101291.06
2023-05-16T21:57:55.741Z,101289.25
2023-05-16T22:00:24.286Z,101297.13
2023-05-16T22:02:52.596Z,101295.41
2023-05-16T22:05:21.121Z,101283.84
2023-05-16T22:07:49.404Z,101285.66
2023-05-16T22:10:19.405Z,101288.72
2023-05-16T22:12:47.695Z,101290.09
2023-05-16T22:15:15.932Z,101278.88
2023-05-16T22:17:44.229Z,101276.91
2023-05-16T22:20:12.954Z,101271.22
2023-05-16T22:22:41.699Z,101268.69
2023-05-16T22:25:10.336Z,101267.00
2023-05-16T22:27:38.677Z,101257.16
2023-05-16T22:30:07.811Z,101255.69
2023-05-16T22:32:36.227Z,101254.63
2023-05-16T22:35:04.613Z,101253.63
2023-05-16T22:37:32.918Z,101245.34
2023-05-16T22:40:01.255Z,101245.44
2023-05-16T22:42:29.607Z,101241.25
2023-05-16T22:44:58.104Z,101240.06
2023-05-16T22:47:26.404Z,101235.41
2023-05-16T22:49:54.632Z,101228.72
2023-05-16T22:52:23.015Z,101222.91
2023-05-16T22:54:51.441Z,101223.00
2023-05-16T22:57:19.780Z,101225.78
2023-05-16T22:59:48.300Z,101223.06
2023-05-16T23:02:16.668Z,101214.09
2023-05-16T23:04:45.052Z,101212.59
2023-05-16T23:07:13.350Z,101210.22
2023-05-16T23:09:41.669Z,101211.69
2023-05-16T23:12:10.392Z,101198.09
2023-05-16T23:14:38.637Z,101207.13
2023-05-16T23:17:07.260Z,101205.72
2023-05-16T23:19:35.700Z,101203.22
2023-05-16T23:22:04.307Z,101199.41
2023-05-16T23:24:32.756Z,101184.81
2023-05-16T23:27:00.951Z,101186.06
2023-05-16T23:29:29.187Z,101186.56
2023-05-16T23:31:57.576Z,101176.44
2023-05-16T23:34:27.680Z,101181.78
2023-05-16T23:36:56.061Z,101176.03
2023-05-16T23:39:24.354Z,101171.47
2023-05-16T23:41:52.636Z,101171.75
2023-05-16T23:44:20.907Z,101165.63
2023-05-16T23:46:49.463Z,101165.91
2023-05-16T23:49:17.690Z,101163.00
2023-05-16T23:54:20.938Z,101161.72
2023-05-16T23:56:49.272Z,101165.63
2023-05-16T23:59:17.618Z,101157.16
